Illizi Takhamalt Airport

DAAP · Illizi, 阿尔及利亚

METAR DAAP · Illizi Takhamalt Airport

19 六月 11:00 LT
18m
罗盘
风向 的 风向 070° Illizi Takhamalt Airport 9/27
风: 10 kt, 3 beaufort

9 kt

3 kt
改变
0 ft 1.000 2.000 3.000 4.000 5.000
CAVOK
METAR DAAP 191000Z 07010KT CAVOK 37/M01 Q1015

METAR Illizi Takhamalt Airport - DAAP/VVZ

Illizi Takhamalt Airport是,阿尔及利亚中的中型机场。 该机场位于纬度26,72608和经度8,61514。 该机场有2条跑道: 9/27 和 4/22. 本场的ICAO机场代码为DAAP。 该机场的IATA代码为VVZ。 机场在Alger FIR中。

该航空气象观测是针对Illizi Takhamalt Airport在2024年6月19日 11:00, 当地时间进行的。

机场观察

风向为070°,速度为10 kt。

天气为CAVOK。这意味着在5.000 ft或MSA(最低安全高度)以下(以较高者为准)以下没有云。这也意味着没有观测到积雨云或高耸的积云,可见度为10 km 或者更多或更高。此外,不会有雾,降雨或其他重要天气。

温度和风寒是37 °C。 露点为-1 °C,相对湿度为9%。 海平面上的气压为1015 hPa (QNH)。

白天

今天,太阳从05:32升起,在19:21降落。 这适用于Illizi Takhamalt Airport,世界夏令时可能有所不同。 当地时间与世界标准时间之间的时差为+1 小时。 夏令时目前正在进行中。

公司介绍

我们没有关于这个机场的公司信息。

体会

到Vliegles.nl去找飞行课程,跳伞和其他飞行体验。 浏览页面,了解Illizi Takhamalt Airport附近所有可用的活动。 你也可以使用搜索功能来寻找你所在地附近的特定飞行课程、跳伞或其他飞行体验。

跑道

Id 标题 侧风 逆风 侧风 %
9/27 090°-270° 3 kt 9 kt 34 %
4/22 039°-219° 5 kt 9 kt 52 %

逆风成分最大的方向会被突出显示,并用于横风计算。 这并不一定意味着这个方向在使用。

温度 & 天气

温度 37 °C
露点 -1 °C
相对湿度 9%
Kp-index 2 (0-9)

白天

日出
05:32
中午
12:27
日落
19:21 (8:03)

小工具

你想在你的网站上有一个关于Illizi Takhamalt Airport的当前航空天气(METAR)的小部件吗?

显示HTML代码
报告变更